Time;durP1;ratioP1;P1;durP2;ratioP2;P2;SDS_P1;SDS_P2;PMS_P1;PMS_P2;Temp;Humidity;BMP_temperature;BMP_pressure;BME280_temperature;BME280_humidity;BME280_pressure;Samples;Min_cycle;Max_cycle;Signal;HPM_P1;HPM_P2
2022/07/08 00:00:09;;;;;;;1.23;1.05;;;18.70;59.90;;;;;;5053679;28;20111;-61
2022/07/08 00:02:35;;;;;;;1.52;1.05;;;18.70;59.90;;;;;;5068472;28;20173;-59
2022/07/08 00:05:00;;;;;;;3.33;1.10;;;18.70;59.90;;;;;;5052767;28;20033;-60
2022/07/08 00:07:26;;;;;;;2.08;1.10;;;18.70;59.80;;;;;;5068510;28;20025;-60
2022/07/08 00:09:52;;;;;;;3.35;1.17;;;18.70;60.00;;;;;;5048195;28;20022;-59
2022/07/08 00:12:17;;;;;;;3.53;1.13;;;18.70;59.90;;;;;;5053126;28;20037;-60
2022/07/08 00:14:43;;;;;;;1.98;1.00;;;18.70;59.90;;;;;;5035855;28;20045;-60
2022/07/08 00:17:08;;;;;;;2.92;1.00;;;18.70;60.00;;;;;;5067993;28;20030;-60
2022/07/08 00:19:34;;;;;;;2.97;1.13;;;18.60;60.10;;;;;;5047708;28;20496;-60
2022/07/08 00:22:00;;;;;;;3.47;1.35;;;18.70;60.20;;;;;;5062829;28;20057;-60
2022/07/08 00:24:26;;;;;;;1.65;1.00;;;18.60;60.10;;;;;;5063525;28;20028;-61
2022/07/08 00:26:51;;;;;;;3.22;1.17;;;18.60;60.10;;;;;;5028595;28;20092;-61
2022/07/08 00:29:17;;;;;;;2.97;1.10;;;18.60;60.20;;;;;;5066648;28;20049;-59
2022/07/08 00:31:43;;;;;;;5.28;1.27;;;18.60;60.20;;;;;;5047229;28;20040;-59
2022/07/08 00:34:08;;;;;;;4.97;1.40;;;18.60;60.10;;;;;;5067534;28;20080;-60
2022/07/08 00:36:35;;;;;;;2.20;1.10;;;18.60;60.40;;;;;;5047332;28;20033;-60
2022/07/08 00:39:02;;;;;;;1.30;1.00;;;18.60;60.20;;;;;;5067516;28;20124;-60
2022/07/08 00:41:28;;;;;;;2.30;1.10;;;18.60;60.40;;;;;;5047219;28;20025;-60
2022/07/08 00:43:54;;;;;;;4.75;1.20;;;18.60;60.70;;;;;;5067272;28;20025;-60
2022/07/08 00:46:21;;;;;;;3.08;1.30;;;18.60;60.60;;;;;;5047180;28;20377;-60
2022/07/08 00:48:46;;;;;;;3.05;1.25;;;18.60;60.50;;;;;;5067332;28;20079;-60
2022/07/08 00:51:15;;;;;;;1.63;1.00;;;18.60;60.40;;;;;;5047071;28;20033;-60
2022/07/08 00:53:50;;;;;;;1.88;1.15;;;18.60;60.30;;;;;;5067364;28;20484;-60
2022/07/08 00:56:16;;;;;;;5.47;1.55;;;18.60;60.30;;;;;;5033498;28;20041;-60
2022/07/08 00:58:42;;;;;;;2.35;1.10;;;18.60;60.30;;;;;;5046971;28;20029;-61
2022/07/08 01:01:08;;;;;;;4.90;1.10;;;18.50;60.40;;;;;;5057765;28;20025;-60
2022/07/08 01:03:34;;;;;;;2.40;1.00;;;18.50;60.50;;;;;;5066579;28;20028;-60
2022/07/08 01:05:59;;;;;;;3.65;1.13;;;18.50;60.60;;;;;;5045841;28;20032;-61
2022/07/08 01:08:25;;;;;;;3.05;1.20;;;18.50;60.60;;;;;;5066735;28;20101;-60
2022/07/08 01:10:52;;;;;;;4.32;1.20;;;18.50;60.60;;;;;;5046916;28;20056;-59
2022/07/08 01:13:18;;;;;;;4.15;1.45;;;18.50;60.70;;;;;;5059837;28;20141;-60
2022/07/08 01:15:45;;;;;;;2.08;1.10;;;18.50;60.70;;;;;;5062705;28;20021;-59
2022/07/08 01:18:28;;;;;;;2.92;0.95;;;18.50;60.70;;;;;;5065367;28;20025;-60
2022/07/08 01:20:54;;;;;;;3.10;1.02;;;18.50;60.90;;;;;;5030928;28;20029;-60
2022/07/08 01:23:20;;;;;;;2.03;0.90;;;18.50;60.50;;;;;;5066593;28;20024;-60
2022/07/08 01:25:46;;;;;;;1.70;1.13;;;18.50;60.70;;;;;;5046043;28;20040;-60
2022/07/08 01:28:13;;;;;;;6.25;1.50;;;18.50;60.90;;;;;;5060892;28;20109;-60
2022/07/08 01:30:39;;;;;;;4.35;1.13;;;18.50;60.20;;;;;;5046216;28;20029;-60
2022/07/08 01:33:04;;;;;;;3.60;1.20;;;18.50;59.20;;;;;;5066290;28;20109;-61
2022/07/08 01:35:30;;;;;;;8.02;1.30;;;18.40;57.70;;;;;;5046396;28;20096;-61
2022/07/08 01:37:56;;;;;;;8.32;1.48;;;18.30;57.50;;;;;;5066290;28;20029;-61
2022/07/08 01:40:21;;;;;;;8.23;1.40;;;18.20;57.30;;;;;;5047327;28;20052;-61
2022/07/08 01:42:47;;;;;;;5.75;1.60;;;18.20;57.20;;;;;;5054322;28;20044;-60
2022/07/08 01:45:13;;;;;;;8.27;1.63;;;18.10;56.80;;;;;;5066341;28;20028;-61
2022/07/08 01:47:38;;;;;;;4.78;1.38;;;18.00;56.80;;;;;;5046106;28;20042;-60
2022/07/08 01:50:05;;;;;;;6.40;1.17;;;17.90;56.60;;;;;;5064583;28;20028;-62
2022/07/08 01:52:31;;;;;;;6.35;1.73;;;17.90;56.40;;;;;;5042148;28;20034;-60
2022/07/08 01:54:56;;;;;;;4.88;1.42;;;17.70;56.30;;;;;;5064775;28;20029;-61
2022/07/08 01:57:22;;;;;;;3.60;1.13;;;17.70;56.10;;;;;;5046284;28;20037;-60
2022/07/08 01:59:49;;;;;;;5.88;1.50;;;17.80;56.40;;;;;;5065596;28;20044;-60
2022/07/08 02:02:17;;;;;;;5.65;1.50;;;17.50;56.20;;;;;;5045765;28;20568;-61
2022/07/08 02:04:43;;;;;;;5.47;1.27;;;17.50;55.70;;;;;;5065744;28;20029;-62
2022/07/08 02:07:09;;;;;;;5.55;1.30;;;17.40;55.50;;;;;;5045717;28;20025;-61
2022/07/08 02:09:36;;;;;;;7.88;1.30;;;17.30;55.60;;;;;;5065498;28;20108;-61
2022/07/08 02:12:18;;;;;;;5.05;1.42;;;17.30;55.50;;;;;;5045445;28;20385;-60
2022/07/08 02:14:49;;;;;;;8.63;1.30;;;17.20;55.60;;;;;;5026450;28;20388;-62
2022/07/08 02:17:16;;;;;;;4.90;1.30;;;17.20;55.60;;;;;;5040432;28;20041;-62
2022/07/08 02:19:41;;;;;;;8.23;1.80;;;17.10;55.20;;;;;;5065129;28;20116;-60
2022/07/08 02:22:08;;;;;;;7.38;1.33;;;17.10;55.30;;;;;;5045645;28;20030;-61
2022/07/08 02:24:34;;;;;;;5.13;1.30;;;17.00;55.10;;;;;;5056601;28;20495;-60
2022/07/08 02:27:00;;;;;;;6.90;1.67;;;17.00;55.20;;;;;;5050883;28;20041;-61
2022/07/08 02:29:25;;;;;;;4.90;1.15;;;16.90;55.30;;;;;;5065011;28;20060;-60
2022/07/08 02:31:51;;;;;;;7.80;1.27;;;16.90;55.30;;;;;;5045154;28;20048;-61
2022/07/08 02:34:17;;;;;;;5.78;1.40;;;16.90;55.50;;;;;;5050563;28;20033;-62
2022/07/08 02:36:43;;;;;;;7.18;1.42;;;16.80;55.40;;;;;;5052530;28;20037;-60
2022/07/08 02:39:08;;;;;;;6.60;1.70;;;16.80;55.40;;;;;;5064980;28;20073;-62
2022/07/08 02:41:34;;;;;;;6.30;1.70;;;16.70;55.30;;;;;;5055012;28;20036;-60
2022/07/08 02:44:00;;;;;;;9.27;1.45;;;16.70;55.50;;;;;;5046061;28;20033;-60
2022/07/08 02:46:25;;;;;;;3.90;1.30;;;16.60;55.50;;;;;;5054935;28;20034;-61
2022/07/08 02:48:51;;;;;;;6.05;1.48;;;16.60;55.70;;;;;;5064837;28;20086;-61
2022/07/08 02:51:17;;;;;;;5.18;1.10;;;16.50;55.70;;;;;;5044998;28;20025;-60
2022/07/08 02:53:42;;;;;;;4.70;1.33;;;16.50;55.70;;;;;;5064875;28;20031;-61
2022/07/08 02:56:08;;;;;;;5.07;1.13;;;16.40;55.80;;;;;;5044904;28;20044;-61
2022/07/08 02:58:34;;;;;;;3.72;1.17;;;16.40;55.90;;;;;;5036687;28;20030;-60
2022/07/08 03:00:59;;;;;;;6.75;1.45;;;16.30;56.00;;;;;;5096655;28;20028;-60
2022/07/08 03:03:25;;;;;;;7.30;1.45;;;16.30;56.20;;;;;;5044564;28;20029;-60
2022/07/08 03:05:51;;;;;;;5.85;1.55;;;16.30;56.30;;;;;;5064419;28;20029;-62
2022/07/08 03:08:16;;;;;;;7.20;1.38;;;16.20;56.40;;;;;;5043519;28;20033;-60
2022/07/08 03:10:42;;;;;;;8.10;1.55;;;16.20;56.50;;;;;;5064682;28;20040;-60
2022/07/08 03:13:07;;;;;;;7.93;1.80;;;16.20;56.60;;;;;;5043594;28;20040;-61
2022/07/08 03:15:33;;;;;;;7.10;1.35;;;16.10;56.70;;;;;;5061696;28;20036;-60
2022/07/08 03:17:59;;;;;;;7.80;1.52;;;16.10;56.80;;;;;;5049891;28;20075;-61
2022/07/08 03:20:26;;;;;;;4.25;1.50;;;16.00;57.00;;;;;;5064515;28;20037;-61
2022/07/08 03:22:51;;;;;;;6.15;1.80;;;16.00;57.10;;;;;;5044850;28;20530;-60
2022/07/08 03:25:17;;;;;;;8.52;1.98;;;16.00;57.30;;;;;;5062950;28;20025;-62
2022/07/08 03:27:43;;;;;;;7.72;1.50;;;16.00;57.40;;;;;;5044606;28;20063;-62
2022/07/08 03:30:09;;;;;;;11.45;2.00;;;15.90;57.50;;;;;;5052800;28;20146;-60
2022/07/08 03:32:35;;;;;;;3.97;1.20;;;15.90;57.60;;;;;;5067388;28;20032;-60
2022/07/08 03:35:00;;;;;;;7.25;1.50;;;15.90;57.70;;;;;;5049544;28;20021;-60
2022/07/08 03:37:26;;;;;;;6.38;1.48;;;15.90;57.70;;;;;;5057940;28;20098;-60
2022/07/08 03:39:53;;;;;;;12.85;1.50;;;15.90;57.70;;;;;;5068360;28;20061;-61
2022/07/08 03:42:19;;;;;;;7.32;1.77;;;15.90;57.80;;;;;;5048411;28;20495;-61
2022/07/08 03:44:45;;;;;;;7.57;1.42;;;15.90;57.80;;;;;;5068388;28;20029;-62
2022/07/08 03:47:11;;;;;;;6.03;1.42;;;15.90;57.80;;;;;;5048296;28;20033;-61
2022/07/08 03:49:36;;;;;;;6.80;1.40;;;15.90;57.80;;;;;;5068248;28;20029;-60
2022/07/08 03:52:02;;;;;;;6.65;1.45;;;15.90;57.90;;;;;;5052453;28;20046;-60
2022/07/08 03:54:28;;;;;;;4.43;1.15;;;15.90;57.90;;;;;;5069029;28;20025;-60
2022/07/08 03:56:54;;;;;;;4.20;1.10;;;16.00;58.00;;;;;;5052706;28;20040;-60
2022/07/08 03:59:20;;;;;;;4.47;1.20;;;16.00;58.00;;;;;;5068802;28;20028;-61
2022/07/08 04:01:45;;;;;;;6.00;1.40;;;16.00;58.00;;;;;;5051850;28;20090;-60
2022/07/08 04:04:11;;;;;;;5.07;1.20;;;16.00;57.90;;;;;;5068837;28;20021;-60
2022/07/08 04:06:37;;;;;;;5.57;1.20;;;16.00;57.90;;;;;;5050336;28;20056;-60
2022/07/08 04:09:04;;;;;;;5.95;1.55;;;16.00;57.90;;;;;;5054763;28;20056;-61
2022/07/08 04:11:30;;;;;;;4.88;1.25;;;16.00;58.00;;;;;;5066207;28;20483;-61
2022/07/08 04:13:56;;;;;;;7.55;1.40;;;16.10;58.20;;;;;;5041282;28;20021;-61
2022/07/08 04:16:22;;;;;;;10.50;1.75;;;16.10;58.50;;;;;;5065543;28;20044;-60
2022/07/08 04:18:48;;;;;;;4.47;1.30;;;16.10;58.40;;;;;;5065815;28;20049;-60
2022/07/08 04:21:14;;;;;;;4.32;1.38;;;16.10;58.30;;;;;;5068431;28;20044;-60
2022/07/08 04:23:40;;;;;;;6.82;1.33;;;16.20;58.30;;;;;;5066118;28;20033;-60
2022/07/08 04:26:06;;;;;;;6.68;1.60;;;16.20;58.20;;;;;;5048139;28;20021;-60
2022/07/08 04:28:33;;;;;;;3.72;1.00;;;16.20;58.70;;;;;;5052126;28;20045;-60
2022/07/08 04:30:58;;;;;;;5.35;1.40;;;16.30;58.20;;;;;;5068184;28;20033;-61
2022/07/08 04:33:24;;;;;;;5.90;1.20;;;16.30;58.30;;;;;;5047456;28;20116;-61
2022/07/08 04:35:50;;;;;;;6.35;1.48;;;16.40;58.80;;;;;;5048657;28;20036;-60
2022/07/08 04:38:15;;;;;;;6.68;1.55;;;16.40;58.10;;;;;;5050082;28;20037;-60
2022/07/08 04:40:41;;;;;;;4.90;0.98;;;16.40;57.90;;;;;;5067220;28;20037;-60
2022/07/08 04:43:07;;;;;;;5.32;1.25;;;16.40;57.70;;;;;;5047007;28;20025;-60
2022/07/08 04:45:32;;;;;;;4.90;1.15;;;16.40;57.80;;;;;;5066796;28;20029;-60
2022/07/08 04:47:58;;;;;;;7.60;1.67;;;16.40;57.70;;;;;;5052175;28;20037;-61
2022/07/08 04:50:24;;;;;;;7.60;1.35;;;16.40;57.70;;;;;;5065999;28;20079;-60
2022/07/08 04:52:49;;;;;;;5.97;1.27;;;16.40;57.60;;;;;;5047469;28;20068;-61
2022/07/08 04:55:28;;;;;;;4.47;1.20;;;16.50;57.70;;;;;;5067260;28;20051;-61
2022/07/08 04:58:01;;;;;;;5.53;1.05;;;16.50;57.70;;;;;;5035899;28;20100;-61
2022/07/08 05:00:27;;;;;;;6.78;1.25;;;16.50;57.50;;;;;;5066947;28;20400;-61
2022/07/08 05:02:53;;;;;;;6.78;1.13;;;16.50;57.40;;;;;;5046904;28;20061;-60
2022/07/08 05:05:19;;;;;;;5.10;1.25;;;16.60;57.40;;;;;;5066973;28;20037;-61
2022/07/08 05:07:47;;;;;;;5.13;1.23;;;16.60;57.30;;;;;;5050546;28;20029;-60
2022/07/08 05:10:14;;;;;;;4.35;1.10;;;16.60;57.30;;;;;;5067965;28;20032;-62
2022/07/08 05:12:40;;;;;;;4.55;1.10;;;16.60;57.10;;;;;;5047504;28;20056;-61
2022/07/08 05:15:06;;;;;;;7.78;1.50;;;16.60;57.00;;;;;;5028031;28;20042;-60
2022/07/08 05:17:32;;;;;;;7.07;1.77;;;16.60;56.70;;;;;;5064724;28;20044;-60
2022/07/08 05:19:58;;;;;;;3.72;1.02;;;16.70;56.80;;;;;;5068098;28;20037;-61
2022/07/08 05:22:23;;;;;;;7.28;1.38;;;16.70;56.70;;;;;;5057152;28;20043;-62
2022/07/08 05:24:49;;;;;;;5.13;1.13;;;16.70;56.60;;;;;;5061631;28;20057;-60
2022/07/08 05:27:15;;;;;;;4.15;0.95;;;16.80;56.40;;;;;;5071326;28;20151;-60
2022/07/08 05:29:40;;;;;;;5.55;0.95;;;16.80;56.30;;;;;;5073166;28;20049;-59
2022/07/08 05:32:06;;;;;;;7.95;1.20;;;16.80;56.20;;;;;;5054613;28;20029;-60
2022/07/08 05:34:32;;;;;;;4.00;1.00;;;16.90;56.20;;;;;;5053310;28;20072;-60
2022/07/08 05:36:58;;;;;;;6.88;1.05;;;16.90;55.80;;;;;;5053903;28;20105;-59
2022/07/08 05:39:24;;;;;;;3.70;0.82;;;16.90;55.50;;;;;;5053890;28;20041;-59
2022/07/08 05:41:51;;;;;;;3.08;0.90;;;16.90;55.30;;;;;;5072414;28;20029;-60
2022/07/08 05:44:17;;;;;;;7.55;1.30;;;16.90;55.60;;;;;;5052267;28;20527;-60
2022/07/08 05:46:43;;;;;;;5.35;1.27;;;17.00;55.70;;;;;;5072507;28;20037;-60
2022/07/08 05:49:09;;;;;;;4.53;0.90;;;17.00;55.50;;;;;;5054311;28;20037;-60
2022/07/08 05:51:34;;;;;;;3.28;0.82;;;17.10;55.40;;;;;;5071754;28;20083;-59
2022/07/08 05:54:00;;;;;;;4.15;0.90;;;17.20;55.10;;;;;;5052560;28;20029;-61
2022/07/08 05:56:26;;;;;;;3.50;1.25;;;17.20;55.00;;;;;;5070342;28;20033;-60
2022/07/08 05:58:52;;;;;;;4.47;0.93;;;17.20;55.00;;;;;;5046025;28;20052;-60
2022/07/08 06:01:17;;;;;;;3.15;0.98;;;17.30;54.80;;;;;;5066499;28;20060;-60
2022/07/08 06:03:43;;;;;;;3.92;1.15;;;17.30;54.90;;;;;;5046584;28;20030;-60
2022/07/08 06:06:09;;;;;;;8.60;1.42;;;17.40;54.60;;;;;;5066644;28;20059;-60
2022/07/08 06:08:34;;;;;;;3.72;1.00;;;17.40;54.40;;;;;;5046398;28;20033;-60
2022/07/08 06:11:01;;;;;;;2.72;0.85;;;17.40;54.40;;;;;;5066304;28;20029;-60
2022/07/08 06:13:27;;;;;;;3.72;0.98;;;17.50;54.60;;;;;;5045997;28;20040;-60
2022/07/08 06:15:53;;;;;;;4.55;1.10;;;17.50;54.40;;;;;;5069109;28;20029;-60
2022/07/08 06:18:19;;;;;;;3.88;0.95;;;17.50;54.50;;;;;;5045964;28;20109;-61
2022/07/08 06:20:45;;;;;;;11.18;1.50;;;17.50;54.30;;;;;;5065977;28;20039;-59
2022/07/08 06:23:10;;;;;;;4.53;0.90;;;17.60;54.30;;;;;;5053674;28;20025;-60
2022/07/08 06:25:36;;;;;;;5.22;0.90;;;17.60;54.00;;;;;;4973905;28;20056;-59
2022/07/08 06:28:02;;;;;;;2.50;1.08;;;17.70;54.10;;;;;;5060087;28;20046;-59
2022/07/08 06:30:29;;;;;;;4.90;1.10;;;17.80;54.20;;;;;;5066301;28;20044;-60
2022/07/08 06:32:55;;;;;;;5.68;1.23;;;17.90;54.20;;;;;;5044798;28;20041;-59
2022/07/08 06:35:21;;;;;;;6.80;1.02;;;18.00;54.10;;;;;;5064480;28;20024;-62
2022/07/08 06:37:47;;;;;;;6.53;1.10;;;18.10;53.50;;;;;;5044582;28;20033;-60
2022/07/08 06:40:12;;;;;;;6.78;1.30;;;18.20;53.60;;;;;;5065566;28;20040;-60
2022/07/08 06:42:38;;;;;;;7.95;1.52;;;18.20;53.30;;;;;;5045766;28;20372;-60
2022/07/08 06:45:05;;;;;;;2.80;0.98;;;18.30;53.00;;;;;;5065916;28;20031;-60
2022/07/08 06:47:30;;;;;;;4.28;1.10;;;18.40;52.80;;;;;;5048007;28;20064;-60
2022/07/08 06:49:56;;;;;;;6.38;1.02;;;18.40;52.20;;;;;;5065193;28;20029;-60
2022/07/08 06:52:22;;;;;;;5.45;1.15;;;18.50;52.30;;;;;;5045946;28;20048;-60
2022/07/08 06:54:48;;;;;;;2.85;1.00;;;18.50;52.50;;;;;;5065486;28;20235;-60
2022/07/08 06:57:15;;;;;;;4.03;0.85;;;18.70;52.70;;;;;;5047204;28;20036;-60
2022/07/08 06:59:41;;;;;;;7.35;1.20;;;18.80;52.40;;;;;;5045056;28;20041;-61
2022/07/08 07:02:07;;;;;;;4.80;1.20;;;18.90;52.20;;;;;;5065037;28;20048;-60
2022/07/08 07:04:33;;;;;;;4.95;0.90;;;19.10;51.80;;;;;;5045087;28;20489;-60
2022/07/08 07:06:59;;;;;;;8.95;1.35;;;19.10;52.10;;;;;;5064766;28;20033;-60
2022/07/08 07:09:24;;;;;;;2.83;0.77;;;19.30;51.90;;;;;;5053568;28;20029;-61
2022/07/08 07:11:50;;;;;;;5.32;1.08;;;19.40;51.40;;;;;;5045259;28;20060;-59
2022/07/08 07:14:16;;;;;;;3.00;0.88;;;19.50;51.20;;;;;;5053241;28;20037;-60
2022/07/08 07:16:42;;;;;;;4.82;0.98;;;19.50;51.10;;;;;;5045924;28;20029;-60
2022/07/08 07:19:08;;;;;;;6.82;1.17;;;19.60;50.50;;;;;;5055898;28;20044;-60
2022/07/08 07:21:34;;;;;;;4.32;1.10;;;19.70;50.80;;;;;;5064896;28;20033;-62
2022/07/08 07:24:00;;;;;;;3.90;1.05;;;19.70;50.80;;;;;;5051125;28;20108;-62
2022/07/08 07:26:26;;;;;;;6.13;1.27;;;19.70;50.40;;;;;;5065469;28;20104;-60
2022/07/08 07:28:52;;;;;;;5.43;1.10;;;19.70;49.70;;;;;;5048237;28;20061;-60
2022/07/08 07:31:17;;;;;;;7.25;1.35;;;19.60;49.30;;;;;;5064687;28;20025;-61
2022/07/08 07:33:43;;;;;;;5.15;1.30;;;19.50;49.20;;;;;;5049158;28;20021;-60
2022/07/08 07:36:09;;;;;;;3.00;1.15;;;19.40;49.40;;;;;;5063882;28;20051;-60
2022/07/08 07:38:34;;;;;;;6.72;1.33;;;19.30;49.50;;;;;;5044596;28;20444;-60
2022/07/08 07:41:00;;;;;;;3.53;1.25;;;19.20;49.70;;;;;;5064771;28;20037;-61
2022/07/08 07:43:26;;;;;;;4.72;1.00;;;19.10;49.70;;;;;;5047658;28;20108;-60
2022/07/08 07:45:52;;;;;;;4.35;1.55;;;19.00;50.10;;;;;;5064727;28;20454;-60
2022/07/08 07:48:17;;;;;;;5.75;1.13;;;18.90;50.70;;;;;;5045926;28;20033;-60
2022/07/08 07:50:44;;;;;;;5.72;1.30;;;18.90;50.90;;;;;;5066749;28;20052;-59
2022/07/08 07:53:09;;;;;;;3.53;0.93;;;18.90;51.20;;;;;;5045641;28;20022;-60
2022/07/08 07:55:35;;;;;;;6.18;1.17;;;18.90;51.20;;;;;;5051932;28;20041;-59
2022/07/08 07:58:01;;;;;;;5.13;1.20;;;19.00;51.50;;;;;;5063367;28;20036;-60
2022/07/08 08:00:27;;;;;;;4.97;1.40;;;19.10;51.10;;;;;;5044252;28;20057;-59
2022/07/08 08:02:53;;;;;;;7.82;1.15;;;19.20;50.70;;;;;;5064314;28;20153;-59
2022/07/08 08:05:19;;;;;;;8.82;1.30;;;19.30;50.20;;;;;;5042981;28;20041;-60
2022/07/08 08:07:44;;;;;;;4.15;1.10;;;19.30;50.10;;;;;;5064147;28;20025;-60
2022/07/08 08:10:14;;;;;;;3.22;1.00;;;19.40;49.70;;;;;;5044409;28;20029;-60
2022/07/08 08:12:43;;;;;;;4.57;1.60;;;19.40;49.10;;;;;;5062618;28;20045;-60
2022/07/08 08:15:09;;;;;;;3.83;1.00;;;19.40;49.80;;;;;;5047498;28;20075;-60
2022/07/08 08:17:39;;;;;;;3.22;0.90;;;19.40;50.10;;;;;;5051458;28;20029;-60
2022/07/08 08:20:07;;;;;;;3.10;1.10;;;19.50;49.50;;;;;;5051128;28;20041;-61
2022/07/08 08:22:33;;;;;;;2.10;0.90;;;19.60;50.00;;;;;;5067067;28;20056;-60
2022/07/08 08:24:59;;;;;;;2.60;1.05;;;19.70;50.00;;;;;;5047429;28;20025;-61
2022/07/08 08:27:25;;;;;;;4.53;0.75;;;19.90;49.60;;;;;;5052827;28;20030;-60
2022/07/08 08:29:50;;;;;;;5.60;1.02;;;20.00;49.20;;;;;;5052720;28;20042;-62
2022/07/08 08:32:16;;;;;;;4.05;1.27;;;20.10;48.80;;;;;;5052098;28;20013;-60
2022/07/08 08:34:42;;;;;;;4.25;0.82;;;20.10;48.40;;;;;;5053010;28;20108;-60
2022/07/08 08:37:09;;;;;;;5.10;0.90;;;20.20;48.20;;;;;;5067279;28;20045;-61
2022/07/08 08:39:34;;;;;;;4.43;1.17;;;20.30;48.90;;;;;;5047580;28;20043;-61
2022/07/08 08:42:00;;;;;;;7.65;0.98;;;20.40;49.60;;;;;;5067458;28;20029;-60
2022/07/08 08:44:26;;;;;;;5.93;1.00;;;20.60;49.20;;;;;;5057178;28;20075;-61
2022/07/08 08:46:56;;;;;;;4.30;1.17;;;20.80;48.00;;;;;;5067147;28;20479;-60
2022/07/08 08:49:22;;;;;;;5.35;1.25;;;20.90;45.50;;;;;;5046746;28;20029;-60
2022/07/08 08:51:50;;;;;;;4.13;0.95;;;20.90;44.80;;;;;;5067003;28;20063;-60
2022/07/08 08:54:20;;;;;;;3.90;1.00;;;20.90;44.90;;;;;;5047092;28;20025;-61
2022/07/08 08:56:46;;;;;;;9.38;1.13;;;20.90;44.90;;;;;;5065696;28;20040;-60
2022/07/08 08:59:14;;;;;;;3.28;0.98;;;21.00;45.50;;;;;;5043390;28;20045;-60
2022/07/08 09:01:40;;;;;;;3.70;1.17;;;21.10;46.20;;;;;;5044999;28;20033;-61
2022/07/08 09:04:10;;;;;;;3.60;1.10;;;21.30;46.60;;;;;;5063544;28;20033;-62
2022/07/08 09:06:37;;;;;;;4.57;1.00;;;21.50;46.30;;;;;;5067708;28;20033;-61
2022/07/08 09:09:03;;;;;;;3.83;1.17;;;21.70;45.40;;;;;;5047996;28;20033;-60
2022/07/08 09:11:29;;;;;;;3.33;1.00;;;21.80;45.70;;;;;;5045188;28;20496;-61
2022/07/08 09:14:31;;;;;;;7.47;1.20;;;21.90;45.10;;;;;;5055493;28;20049;-61
2022/07/08 09:17:17;;;;;;;3.90;0.98;;;22.00;44.50;;;;;;5005779;28;20123;-61
2022/07/08 09:19:46;;;;;;;4.93;1.13;;;22.00;43.70;;;;;;5028339;28;20048;-61
2022/07/08 09:22:12;;;;;;;2.35;0.70;;;21.90;44.10;;;;;;5045862;28;20036;-60
2022/07/08 09:24:39;;;;;;;4.35;1.17;;;21.80;44.20;;;;;;5024292;28;20037;-60
2022/07/08 09:27:08;;;;;;;6.35;1.10;;;21.80;44.30;;;;;;5025738;28;20054;-61
2022/07/08 09:29:35;;;;;;;7.25;1.50;;;21.60;44.10;;;;;;5026798;28;20050;-60
2022/07/08 09:32:14;;;;;;;12.32;1.42;;;21.50;44.60;;;;;;5036806;28;20037;-61
2022/07/08 09:34:42;;;;;;;3.40;0.95;;;21.40;44.30;;;;;;5015197;28;20030;-60
2022/07/08 09:37:13;;;;;;;3.67;1.10;;;21.30;43.80;;;;;;5045935;28;20096;-60
2022/07/08 09:39:39;;;;;;;5.90;1.25;;;21.20;44.20;;;;;;5024000;28;20061;-60
2022/07/08 09:42:08;;;;;;;5.43;0.93;;;21.10;44.30;;;;;;5031414;28;20037;-61
2022/07/08 09:44:37;;;;;;;5.45;0.75;;;21.10;45.20;;;;;;5023751;28;20033;-60
2022/07/08 09:47:15;;;;;;;2.47;0.93;;;21.20;45.50;;;;;;5044822;28;20456;-61
2022/07/08 09:49:42;;;;;;;5.00;1.10;;;21.30;45.10;;;;;;5023456;28;20049;-62
2022/07/08 09:52:09;;;;;;;6.72;0.90;;;21.40;45.30;;;;;;5061440;28;20033;-62
2022/07/08 09:54:36;;;;;;;5.07;0.90;;;21.50;45.80;;;;;;5029707;28;20026;-62
2022/07/08 09:57:08;;;;;;;6.10;1.08;;;21.60;45.00;;;;;;5045650;28;20025;-60
2022/07/08 09:59:36;;;;;;;5.45;0.93;;;21.70;45.10;;;;;;5009899;28;20044;-61
2022/07/08 10:02:03;;;;;;;2.65;0.90;;;21.70;44.60;;;;;;5042002;28;20056;-60
2022/07/08 10:04:29;;;;;;;3.92;0.98;;;21.70;44.10;;;;;;5044246;28;20029;-61
2022/07/08 10:06:56;;;;;;;6.22;1.00;;;21.70;44.40;;;;;;5039489;28;20114;-60
2022/07/08 10:09:23;;;;;;;3.33;0.88;;;21.70;43.50;;;;;;5044619;28;20254;-61
2022/07/08 10:11:51;;;;;;;3.08;1.02;;;21.70;44.50;;;;;;5047404;28;20021;-60
2022/07/08 10:14:18;;;;;;;4.13;1.00;;;21.80;44.30;;;;;;5013531;28;20068;-60
2022/07/08 10:16:46;;;;;;;3.00;1.00;;;21.90;44.30;;;;;;5022376;28;20121;-60
2022/07/08 10:19:17;;;;;;;3.80;1.10;;;21.90;44.00;;;;;;5024475;28;20160;-61
2022/07/08 10:21:50;;;;;;;6.43;1.20;;;22.00;44.10;;;;;;5014789;28;20022;-60
2022/07/08 10:24:22;;;;;;;4.18;1.10;;;22.00;43.70;;;;;;4974470;28;20030;-61
2022/07/08 10:26:47;;;;;;;2.80;1.00;;;22.00;43.80;;;;;;5018261;28;20029;-61
2022/07/08 10:29:14;;;;;;;3.72;1.23;;;22.00;43.30;;;;;;5041244;28;20060;-60
2022/07/08 10:31:52;;;;;;;4.95;1.15;;;22.10;44.30;;;;;;5044756;28;20044;-61
2022/07/08 10:34:28;;;;;;;4.35;1.38;;;22.30;43.20;;;;;;5055094;28;20503;-61
2022/07/08 10:36:54;;;;;;;4.25;1.25;;;22.40;44.00;;;;;;5043665;28;20450;-60
2022/07/08 10:39:40;;;;;;;3.38;1.05;;;22.50;43.00;;;;;;5064825;28;20064;-60
2022/07/08 10:42:07;;;;;;;4.57;1.13;;;22.50;42.50;;;;;;5047481;28;20030;-59
2022/07/08 10:44:42;;;;;;;4.97;0.90;;;22.50;42.80;;;;;;5050437;28;20034;-61
2022/07/08 10:47:09;;;;;;;5.28;1.58;;;22.50;43.10;;;;;;5046919;28;20029;-60
2022/07/08 10:49:43;;;;;;;3.53;1.00;;;22.50;44.20;;;;;;5052226;28;20033;-62
2022/07/08 10:52:08;;;;;;;4.03;1.13;;;22.70;42.50;;;;;;5047644;28;20411;-61
2022/07/08 10:54:36;;;;;;;4.88;1.38;;;22.80;42.60;;;;;;5051786;28;20037;-61
2022/07/08 10:57:16;;;;;;;5.18;1.17;;;22.80;41.70;;;;;;5048314;28;20029;-60
2022/07/08 11:00:00;;;;;;;2.83;0.70;;;22.80;41.10;;;;;;5039216;28;20041;-60
2022/07/08 11:02:26;;;;;;;4.80;1.00;;;22.70;41.10;;;;;;5043852;28;20036;-61
2022/07/08 11:04:53;;;;;;;3.03;1.05;;;22.50;41.30;;;;;;5053740;28;20112;-61
2022/07/08 11:07:32;;;;;;;5.93;0.90;;;22.40;41.80;;;;;;5045858;28;20030;-61
2022/07/08 11:10:03;;;;;;;2.97;0.85;;;22.30;42.10;;;;;;5041492;28;20028;-60
2022/07/08 11:12:30;;;;;;;4.28;1.20;;;22.30;42.60;;;;;;5037588;28;20055;-61
2022/07/08 11:14:58;;;;;;;3.13;0.95;;;22.40;42.20;;;;;;5064792;28;20158;-60
2022/07/08 11:17:25;;;;;;;2.88;1.02;;;22.50;42.10;;;;;;5043094;28;20025;-61
2022/07/08 11:19:53;;;;;;;4.10;1.10;;;22.70;42.80;;;;;;5064973;28;20100;-60
2022/07/08 11:22:20;;;;;;;3.13;1.05;;;22.80;42.50;;;;;;5044973;28;20110;-60
2022/07/08 11:24:47;;;;;;;4.47;1.10;;;23.10;43.20;;;;;;5054584;28;20047;-61
2022/07/08 11:27:13;;;;;;;2.53;1.05;;;23.40;43.50;;;;;;5046460;28;20026;-61
2022/07/08 11:29:50;;;;;;;7.45;1.02;;;23.70;42.70;;;;;;5064685;28;20079;-61
2022/07/08 11:32:19;;;;;;;3.75;1.33;;;23.90;40.80;;;;;;5042155;28;20068;-61
2022/07/08 11:34:48;;;;;;;3.10;0.98;;;24.00;40.20;;;;;;5065265;28;20033;-61
2022/07/08 11:37:15;;;;;;;1.58;0.80;;;24.00;40.30;;;;;;5044494;28;20502;-61
2022/07/08 11:39:45;;;;;;;4.68;0.95;;;24.10;40.40;;;;;;5045368;28;20041;-61
2022/07/08 11:42:12;;;;;;;3.25;1.00;;;24.10;40.20;;;;;;5046534;28;20029;-61
2022/07/08 11:44:38;;;;;;;4.00;0.98;;;24.20;41.00;;;;;;5064589;28;20017;-60
2022/07/08 11:47:04;;;;;;;2.05;0.85;;;24.40;40.60;;;;;;5044381;28;20060;-61
2022/07/08 11:49:31;;;;;;;2.97;0.80;;;24.50;39.80;;;;;;5065130;28;20253;-63
2022/07/08 11:51:58;;;;;;;3.63;0.70;;;24.70;39.70;;;;;;5048477;28;20026;-61
2022/07/08 11:54:29;;;;;;;5.13;1.25;;;24.90;39.00;;;;;;5065633;28;20120;-61
2022/07/08 11:56:57;;;;;;;2.80;0.68;;;25.00;39.10;;;;;;5052446;28;20021;-60
2022/07/08 11:59:24;;;;;;;3.67;1.10;;;25.00;39.40;;;;;;5055327;28;20041;-61
2022/07/08 12:01:52;;;;;;;3.35;0.80;;;25.10;38.90;;;;;;5053068;28;20039;-61
2022/07/08 12:04:17;;;;;;;2.55;0.88;;;25.10;38.90;;;;;;5049089;28;20032;-60
2022/07/08 12:06:49;;;;;;;5.75;1.02;;;25.10;39.90;;;;;;5053461;28;20029;-61
2022/07/08 12:09:16;;;;;;;4.53;1.25;;;25.20;39.30;;;;;;5067171;28;20052;-60
2022/07/08 12:11:46;;;;;;;2.40;0.90;;;25.30;39.00;;;;;;5047794;28;20025;-60
2022/07/08 12:14:13;;;;;;;3.05;0.90;;;25.40;38.40;;;;;;5045274;28;20033;-61
2022/07/08 12:16:44;;;;;;;2.10;0.70;;;25.50;38.90;;;;;;5059631;28;20029;-61
2022/07/08 12:19:29;;;;;;;4.60;1.05;;;25.60;39.70;;;;;;5068141;28;20112;-61
2022/07/08 12:21:57;;;;;;;9.00;1.33;;;25.80;35.90;;;;;;5047595;28;20026;-60
2022/07/08 12:24:27;;;;;;;5.25;1.08;;;25.90;37.40;;;;;;5060866;28;20021;-60
2022/07/08 12:26:58;;;;;;;3.70;0.98;;;26.00;37.40;;;;;;5061889;28;20036;-60
2022/07/08 12:29:31;;;;;;;2.95;0.80;;;26.10;37.10;;;;;;5044142;28;20050;-60
2022/07/08 12:31:56;;;;;;;2.50;0.70;;;26.20;36.90;;;;;;5042605;28;20568;-60
2022/07/08 12:34:24;;;;;;;2.72;0.82;;;26.30;36.40;;;;;;5067594;28;20033;-60
2022/07/08 12:36:50;;;;;;;3.72;1.10;;;26.20;35.50;;;;;;5047227;28;20033;-61
2022/07/08 12:39:28;;;;;;;2.00;0.80;;;26.10;35.30;;;;;;5067648;28;20075;-61
2022/07/08 12:42:05;;;;;;;1.83;0.70;;;25.90;35.40;;;;;;5041798;28;20412;-62
2022/07/08 12:44:48;;;;;;;1.92;0.77;;;25.70;35.90;;;;;;5045663;28;20040;-61